createdAt,value
2018-09-27T00:00:46.019Z,1018
2018-09-27T00:01:48.053Z,1018
2018-09-27T00:02:50.366Z,1018
2018-09-27T00:03:52.774Z,1018
2018-09-27T00:04:54.811Z,1017.9
2018-09-27T00:05:56.830Z,1018
2018-09-27T00:06:58.861Z,1018
2018-09-27T00:08:01.175Z,1017.9
2018-09-27T00:09:03.784Z,1017.9
2018-09-27T00:10:06.192Z,1017.9
2018-09-27T00:11:08.229Z,1018
2018-09-27T00:12:10.270Z,1017.9
2018-09-27T00:13:12.291Z,1017.9
2018-09-27T00:14:14.331Z,1017.9
2018-09-27T00:15:16.366Z,1017.9
2018-09-27T00:16:18.384Z,1017.9
2018-09-27T00:17:20.416Z,1018
2018-09-27T00:18:22.452Z,1018
2018-09-27T00:19:24.517Z,1017.9
2018-09-27T00:20:26.514Z,1018
2018-09-27T00:21:29.230Z,1017.9
2018-09-27T00:22:31.253Z,1018
2018-09-27T00:23:33.282Z,1018
2018-09-27T00:24:35.313Z,1017.9
2018-09-27T00:25:37.346Z,1017.9
2018-09-27T00:26:39.378Z,1017.9
2018-09-27T00:27:41.416Z,1017.9
2018-09-27T00:28:43.439Z,1017.9
2018-09-27T00:29:45.479Z,1017.9
2018-09-27T00:30:47.505Z,1017.9
2018-09-27T00:31:49.533Z,1017.9
2018-09-27T00:32:51.558Z,1017.9
2018-09-27T00:33:53.593Z,1017.9
2018-09-27T00:34:56.303Z,1017.9
2018-09-27T00:35:58.334Z,1017.9
2018-09-27T00:37:00.370Z,1018
2018-09-27T00:38:02.671Z,1018
2018-09-27T00:39:04.713Z,1018
2018-09-27T00:40:06.747Z,1017.9
2018-09-27T00:41:08.779Z,1018
2018-09-27T00:42:10.805Z,1018
2018-09-27T00:43:12.840Z,1018
2018-09-27T00:44:14.861Z,1018
2018-09-27T00:45:16.890Z,1018
2018-09-27T00:46:18.930Z,1017.9
2018-09-27T00:47:20.951Z,1017.9
2018-09-27T00:48:22.982Z,1018
2018-09-27T00:49:25.016Z,1018
2018-09-27T00:50:27.044Z,1017.9
2018-09-27T00:51:29.068Z,1018
2018-09-27T00:52:31.487Z,1018
2018-09-27T00:53:33.908Z,1018
2018-09-27T00:54:35.938Z,1018
2018-09-27T00:55:37.961Z,1018
2018-09-27T00:56:39.990Z,1018
2018-09-27T00:57:42.021Z,1018
2018-09-27T00:58:44.042Z,1017.9
2018-09-27T00:59:46.360Z,1017.9
2018-09-27T01:00:48.780Z,1017.9
2018-09-27T01:01:51.187Z,1018
2018-09-27T01:02:53.609Z,1017.9
2018-09-27T01:03:55.936Z,1018
2018-09-27T01:04:57.964Z,1017.9
2018-09-27T01:05:59.991Z,1017.9
2018-09-27T01:07:02.034Z,1017.9
2018-09-27T01:08:04.342Z,1017.9
2018-09-27T01:09:06.649Z,1018
2018-09-27T01:10:08.685Z,1017.9
2018-09-27T01:11:10.701Z,1017.9
2018-09-27T01:12:12.741Z,1017.9
2018-09-27T01:13:14.770Z,1017.9
2018-09-27T01:14:16.807Z,1017.9
2018-09-27T01:15:18.833Z,1017.9
2018-09-27T01:16:20.868Z,1017.9
2018-09-27T01:17:22.889Z,1017.9
2018-09-27T01:18:24.912Z,1017.9
2018-09-27T01:19:27.233Z,1017.9
2018-09-27T01:20:29.253Z,1017.9
2018-09-27T01:21:31.287Z,1018
2018-09-27T01:22:33.605Z,1017.9
2018-09-27T01:23:35.636Z,1017.9
2018-09-27T01:24:37.659Z,1017.9
2018-09-27T01:25:39.697Z,1017.9
2018-09-27T01:26:41.721Z,1017.9
2018-09-27T01:27:43.749Z,1017.9
2018-09-27T01:28:45.790Z,1017.8
2018-09-27T01:29:47.819Z,1017.9
2018-09-27T01:30:50.135Z,1017.8
2018-09-27T01:31:52.158Z,1017.9
2018-09-27T01:32:54.191Z,1017.8
2018-09-27T01:33:56.615Z,1017.9
2018-09-27T01:34:58.634Z,1017.8
2018-09-27T01:36:00.679Z,1017.8
2018-09-27T01:37:02.700Z,1017.8
2018-09-27T01:38:04.727Z,1017.9
2018-09-27T01:39:06.755Z,1017.8
2018-09-27T01:40:08.787Z,1017.9
2018-09-27T01:41:11.099Z,1017.8
2018-09-27T01:42:13.131Z,1017.9
2018-09-27T01:43:15.165Z,1017.9
2018-09-27T01:44:17.469Z,1017.9
2018-09-27T01:45:19.808Z,1017.8
2018-09-27T01:46:21.840Z,1017.9
2018-09-27T01:47:24.154Z,1017.8
2018-09-27T01:48:26.183Z,1017.9
2018-09-27T01:49:28.611Z,1017.8
2018-09-27T01:50:30.635Z,1017.8
2018-09-27T01:51:32.662Z,1017.9
2018-09-27T01:52:34.704Z,1017.8
2018-09-27T01:53:36.725Z,1017.9
2018-09-27T01:54:38.754Z,1017.9
2018-09-27T01:55:40.788Z,1017.9
2018-09-27T01:56:42.821Z,1017.9
2018-09-27T01:57:44.844Z,1017.9
2018-09-27T01:58:46.879Z,1017.9
2018-09-27T01:59:48.907Z,1017.9
2018-09-27T02:00:51.222Z,1017.9
2018-09-27T02:01:53.854Z,1017.9
2018-09-27T02:02:55.888Z,1018
2018-09-27T02:03:57.907Z,1018
2018-09-27T02:04:59.939Z,1018
2018-09-27T02:06:01.966Z,1018
2018-09-27T02:07:04.381Z,1018
2018-09-27T02:08:06.409Z,1018
2018-09-27T02:09:08.448Z,1018
2018-09-27T02:10:10.769Z,1018
2018-09-27T02:11:12.796Z,1018
2018-09-27T02:12:14.825Z,1017.9
2018-09-27T02:13:16.861Z,1018
2018-09-27T02:14:18.883Z,1018
2018-09-27T02:15:21.199Z,1017.9
2018-09-27T02:16:23.617Z,1018
2018-09-27T02:17:26.021Z,1018
2018-09-27T02:18:28.064Z,1018
2018-09-27T02:19:30.096Z,1017.9
2018-09-27T02:20:33.078Z,1018
2018-09-27T02:21:35.101Z,1017.9
2018-09-27T02:22:37.527Z,1017.9
2018-09-27T02:23:39.551Z,1017.9
2018-09-27T02:24:41.581Z,1017.9
2018-09-27T02:25:43.619Z,1017.9
2018-09-27T02:26:45.639Z,1017.9
2018-09-27T02:27:47.671Z,1017.8
2018-09-27T02:28:50.092Z,1017.9
2018-09-27T02:29:52.118Z,1017.9
2018-09-27T02:30:54.148Z,1017.9
2018-09-27T02:31:57.537Z,1017.9
2018-09-27T02:32:59.562Z,1017.9
2018-09-27T02:34:01.592Z,1017.8
2018-09-27T02:35:04.062Z,1017.9
2018-09-27T02:36:06.091Z,1017.9
2018-09-27T02:37:08.119Z,1017.9
2018-09-27T02:38:10.437Z,1017.9
2018-09-27T02:39:12.861Z,1017.8
2018-09-27T02:40:14.884Z,1017.9
2018-09-27T02:41:16.928Z,1017.8
2018-09-27T02:42:18.942Z,1017.8
2018-09-27T02:43:21.363Z,1017.7
2018-09-27T02:44:23.394Z,1017.8
2018-09-27T02:45:25.739Z,1017.8
2018-09-27T02:46:28.352Z,1017.8
2018-09-27T02:47:30.383Z,1017.7
2018-09-27T02:48:32.413Z,1017.8
2018-09-27T02:49:34.442Z,1017.8
2018-09-27T02:50:36.768Z,1017.8
2018-09-27T02:51:39.558Z,1017.7
2018-09-27T02:52:41.890Z,1017.7
2018-09-27T02:53:43.916Z,1017.8
2018-09-27T02:54:45.948Z,1017.7
2018-09-27T02:55:48.250Z,1017.8
2018-09-27T02:56:50.668Z,1017.8
2018-09-27T02:57:52.706Z,1017.8
2018-09-27T02:58:55.001Z,1017.7
2018-09-27T02:59:57.040Z,1017.8
2018-09-27T03:00:59.456Z,1017.7
2018-09-27T03:02:01.765Z,1017.8
2018-09-27T03:03:04.109Z,1017.8
2018-09-27T03:04:06.141Z,1017.7
2018-09-27T03:05:08.449Z,1017.7
2018-09-27T03:06:10.485Z,1017.7
2018-09-27T03:07:12.517Z,1017.7
2018-09-27T03:08:14.537Z,1017.7
2018-09-27T03:09:16.852Z,1017.7
2018-09-27T03:10:18.886Z,1017.7
2018-09-27T03:11:20.908Z,1017.7
2018-09-27T03:12:22.944Z,1017.8
2018-09-27T03:13:24.982Z,1017.7
2018-09-27T03:14:27.008Z,1017.7
2018-09-27T03:15:29.045Z,1017.7
2018-09-27T03:16:31.065Z,1017.7
2018-09-27T03:17:33.479Z,1017.7
2018-09-27T03:18:35.501Z,1017.7
2018-09-27T03:19:37.538Z,1017.7
2018-09-27T03:20:40.252Z,1017.7
2018-09-27T03:21:42.570Z,1017.7
2018-09-27T03:22:44.606Z,1017.7
2018-09-27T03:23:46.642Z,1017.7
2018-09-27T03:24:48.949Z,1017.6
2018-09-27T03:25:51.367Z,1017.5
2018-09-27T03:26:53.671Z,1017.6
2018-09-27T03:27:55.705Z,1017.6
2018-09-27T03:28:58.010Z,1017.6
2018-09-27T03:30:00.043Z,1017.6
2018-09-27T03:31:02.384Z,1017.6
2018-09-27T03:32:05.082Z,1017.5
2018-09-27T03:33:07.410Z,1017.5
2018-09-27T03:34:09.752Z,1017.5
2018-09-27T03:35:11.774Z,1017.5
2018-09-27T03:36:13.810Z,1017.5
2018-09-27T03:37:15.845Z,1017.5
2018-09-27T03:38:17.874Z,1017.5
2018-09-27T03:39:20.681Z,1017.5
2018-09-27T03:40:23.039Z,1017.5
2018-09-27T03:41:25.316Z,1017.5
2018-09-27T03:42:27.640Z,1017.5
2018-09-27T03:43:29.676Z,1017.5
2018-09-27T03:44:31.701Z,1017.5
2018-09-27T03:45:34.127Z,1017.5
2018-09-27T03:46:36.160Z,1017.4
2018-09-27T03:47:38.183Z,1017.5
2018-09-27T03:48:40.225Z,1017.5
2018-09-27T03:49:42.259Z,1017.5
2018-09-27T03:50:44.284Z,1017.5
2018-09-27T03:51:46.308Z,1017.5
2018-09-27T03:52:48.658Z,1017.5
2018-09-27T03:53:50.688Z,1017.5
2018-09-27T03:54:52.715Z,1017.5
2018-09-27T03:55:55.066Z,1017.5
2018-09-27T03:56:57.338Z,1017.5
2018-09-27T03:57:59.661Z,1017.5
2018-09-27T03:59:02.777Z,1017.4
2018-09-27T04:00:05.092Z,1017.5
2018-09-27T04:01:07.782Z,1017.5
2018-09-27T04:02:09.820Z,1017.4
2018-09-27T04:03:11.917Z,1017.5
2018-09-27T04:04:14.319Z,1017.4
2018-09-27T04:05:16.718Z,1017.5
2018-09-27T04:06:19.042Z,1017.5
2018-09-27T04:07:21.073Z,1017.4
2018-09-27T04:08:23.383Z,1017.4
2018-09-27T04:09:25.412Z,1017.4
2018-09-27T04:10:27.736Z,1017.4
2018-09-27T04:11:30.044Z,1017.4
2018-09-27T04:12:32.974Z,1017.4
2018-09-27T04:13:34.982Z,1017.4
2018-09-27T04:14:37.299Z,1017.4
2018-09-27T04:15:39.337Z,1017.4
2018-09-27T04:16:41.365Z,1017.4
2018-09-27T04:17:43.391Z,1017.4
2018-09-27T04:18:45.711Z,1017.4
2018-09-27T04:19:47.747Z,1017.5
2018-09-27T04:20:50.068Z,1017.4
2018-09-27T04:21:52.172Z,1017.5
2018-09-27T04:22:54.135Z,1017.5
2018-09-27T04:23:56.189Z,1017.5
2018-09-27T04:24:58.500Z,1017.5
2018-09-27T04:26:00.533Z,1017.5
2018-09-27T04:27:02.557Z,1017.5
2018-09-27T04:28:04.589Z,1017.5
2018-09-27T04:29:07.010Z,1017.5
2018-09-27T04:30:09.417Z,1017.5
2018-09-27T04:31:11.737Z,1017.5
2018-09-27T04:32:13.769Z,1017.4
2018-09-27T04:33:15.799Z,1017.5
2018-09-27T04:34:17.827Z,1017.5
2018-09-27T04:35:19.860Z,1017.5
2018-09-27T04:36:22.268Z,1017.5
2018-09-27T04:37:24.292Z,1017.5
2018-09-27T04:38:26.640Z,1017.5
2018-09-27T04:39:28.664Z,1017.5
2018-09-27T04:40:30.692Z,1017.5
2018-09-27T04:41:33.386Z,1017.5
2018-09-27T04:42:35.414Z,1017.5
2018-09-27T04:43:37.835Z,1017.5
2018-09-27T04:44:40.146Z,1017.5
2018-09-27T04:45:42.563Z,1017.5
2018-09-27T04:46:44.941Z,1017.5
2018-09-27T04:47:46.907Z,1017.5
2018-09-27T04:48:48.934Z,1017.5
2018-09-27T04:49:51.270Z,1017.5
2018-09-27T04:50:53.293Z,1017.5
2018-09-27T04:51:55.417Z,1017.5
2018-09-27T04:52:57.364Z,1017.5
2018-09-27T04:53:59.668Z,1017.5
2018-09-27T04:55:01.712Z,1017.5
2018-09-27T04:56:03.739Z,1017.5
2018-09-27T04:57:05.767Z,1017.5
2018-09-27T04:58:07.793Z,1017.6
2018-09-27T04:59:09.828Z,1017.6
2018-09-27T05:00:11.961Z,1017.6
2018-09-27T05:01:13.882Z,1017.6
2018-09-27T05:02:15.917Z,1017.6
2018-09-27T05:03:17.935Z,1017.6
2018-09-27T05:04:19.977Z,1017.5
2018-09-27T05:05:22.010Z,1017.5
2018-09-27T05:06:24.408Z,1017.6
2018-09-27T05:07:26.743Z,1017.6
2018-09-27T05:08:28.780Z,1017.5
2018-09-27T05:09:31.192Z,1017.5
2018-09-27T05:10:34.296Z,1017.5
2018-09-27T05:11:36.337Z,1017.5
2018-09-27T05:12:38.361Z,1017.5
2018-09-27T05:13:40.678Z,1017.5
2018-09-27T05:14:42.712Z,1017.5
2018-09-27T05:15:44.751Z,1017.6
2018-09-27T05:16:46.761Z,1017.6
2018-09-27T05:17:48.801Z,1017.6
2018-09-27T05:18:50.824Z,1017.6
2018-09-27T05:19:52.857Z,1017.5
2018-09-27T05:20:54.900Z,1017.5
2018-09-27T05:21:56.933Z,1017.5
2018-09-27T05:22:58.951Z,1017.5
2018-09-27T05:24:01.282Z,1017.5
2018-09-27T05:25:03.310Z,1017.5
2018-09-27T05:26:05.630Z,1017.5
2018-09-27T05:27:07.686Z,1017.5
2018-09-27T05:28:09.681Z,1017.6
2018-09-27T05:29:11.713Z,1017.6
2018-09-27T05:30:13.740Z,1017.6
2018-09-27T05:31:15.773Z,1017.6
2018-09-27T05:32:17.797Z,1017.6
2018-09-27T05:33:19.837Z,1017.7
2018-09-27T05:34:22.149Z,1017.6
2018-09-27T05:35:24.574Z,1017.6
2018-09-27T05:36:26.617Z,1017.6
2018-09-27T05:37:28.636Z,1017.7
2018-09-27T05:38:30.664Z,1017.6
2018-09-27T05:39:32.767Z,1017.6
2018-09-27T05:40:35.104Z,1017.6
2018-09-27T05:41:37.511Z,1017.6
2018-09-27T05:42:39.551Z,1017.6
2018-09-27T05:43:41.581Z,1017.6
2018-09-27T05:44:43.601Z,1017.6
2018-09-27T05:45:45.648Z,1017.6
2018-09-27T05:46:47.964Z,1017.6
2018-09-27T05:47:49.989Z,1017.6
2018-09-27T05:48:52.328Z,1017.6
2018-09-27T05:49:54.419Z,1017.6
2018-09-27T05:50:56.797Z,1017.6
2018-09-27T05:51:58.828Z,1017.6
2018-09-27T05:53:00.859Z,1017.7
2018-09-27T05:54:02.883Z,1017.7
2018-09-27T05:55:04.913Z,1017.7
2018-09-27T05:56:06.935Z,1017.7
2018-09-27T05:57:08.971Z,1017.7
2018-09-27T05:58:10.996Z,1017.7
2018-09-27T05:59:13.021Z,1017.8
2018-09-27T06:00:15.342Z,1017.8
2018-09-27T06:01:17.367Z,1017.7
2018-09-27T06:02:19.714Z,1017.8
2018-09-27T06:03:21.742Z,1017.8
2018-09-27T06:04:23.777Z,1017.8
2018-09-27T06:05:25.805Z,1017.8
2018-09-27T06:06:27.842Z,1017.8
2018-09-27T06:07:29.869Z,1017.8
2018-09-27T06:08:31.895Z,1017.8
2018-09-27T06:09:34.410Z,1017.8
2018-09-27T06:10:37.178Z,1017.8
2018-09-27T06:11:39.226Z,1017.8
2018-09-27T06:12:41.539Z,1017.7
2018-09-27T06:13:43.573Z,1017.8
2018-09-27T06:14:45.595Z,1017.8
2018-09-27T06:15:47.629Z,1017.8
2018-09-27T06:16:49.661Z,1017.8
2018-09-27T06:17:51.683Z,1017.8
2018-09-27T06:18:53.728Z,1017.7
2018-09-27T06:19:55.817Z,1017.8
2018-09-27T06:20:57.787Z,1017.8
2018-09-27T06:22:00.207Z,1017.8
2018-09-27T06:23:02.621Z,1017.8
2018-09-27T06:24:05.030Z,1017.8
2018-09-27T06:25:07.354Z,1017.9
2018-09-27T06:26:09.403Z,1017.8
2018-09-27T06:27:11.404Z,1017.8
2018-09-27T06:28:13.435Z,1017.8
2018-09-27T06:29:15.468Z,1017.8
2018-09-27T06:30:17.493Z,1017.9
2018-09-27T06:31:19.526Z,1017.9
2018-09-27T06:32:21.561Z,1017.8
2018-09-27T06:33:23.925Z,1017.8
2018-09-27T06:34:25.892Z,1017.8
2018-09-27T06:35:27.927Z,1017.8
2018-09-27T06:36:29.957Z,1017.8
2018-09-27T06:37:31.987Z,1017.8
2018-09-27T06:38:34.016Z,1017.9
2018-09-27T06:39:36.046Z,1017.9
2018-09-27T06:40:38.075Z,1017.9
2018-09-27T06:41:40.101Z,1017.9
2018-09-27T06:42:42.162Z,1017.9
2018-09-27T06:43:44.158Z,1017.9
2018-09-27T06:44:46.189Z,1017.9
2018-09-27T06:45:48.211Z,1017.9
2018-09-27T06:46:50.244Z,1017.9
2018-09-27T06:47:52.266Z,1017.9
2018-09-27T06:48:54.815Z,1017.8
2018-09-27T06:49:57.158Z,1017.9
2018-09-27T06:50:59.177Z,1017.9
2018-09-27T06:52:01.223Z,1017.9
2018-09-27T06:53:03.255Z,1017.9
2018-09-27T06:54:05.278Z,1017.9
2018-09-27T06:55:07.504Z,1018
2018-09-27T06:56:10.662Z,1017.9
2018-09-27T06:57:12.964Z,1017.9
2018-09-27T06:58:14.992Z,1017.9
2018-09-27T06:59:17.024Z,1017.9
2018-09-27T07:00:19.050Z,1017.8
2018-09-27T07:01:21.073Z,1017.8
2018-09-27T07:02:23.135Z,1017.8
2018-09-27T07:03:25.464Z,1017.8
2018-09-27T07:04:27.496Z,1017.8
2018-09-27T07:05:29.542Z,1017.8
2018-09-27T07:06:31.851Z,1017.8
2018-09-27T07:07:34.199Z,1017.8
2018-09-27T07:08:36.684Z,1017.9
2018-09-27T07:09:38.643Z,1017.9
2018-09-27T07:10:40.959Z,1017.8
2018-09-27T07:11:43.678Z,1017.8
2018-09-27T07:12:45.740Z,1017.8
2018-09-27T07:13:48.112Z,1017.8
2018-09-27T07:14:50.424Z,1017.8
2018-09-27T07:15:52.467Z,1017.8
2018-09-27T07:16:54.487Z,1017.8
2018-09-27T07:17:56.520Z,1017.9
2018-09-27T07:18:58.930Z,1017.8
2018-09-27T07:20:00.966Z,1017.8
2018-09-27T07:21:03.295Z,1017.8
2018-09-27T07:22:05.340Z,1017.8
2018-09-27T07:23:07.373Z,1017.8
2018-09-27T07:24:09.400Z,1017.9
2018-09-27T07:25:11.818Z,1017.9
2018-09-27T07:26:14.157Z,1018
2018-09-27T07:27:16.481Z,1017.9
2018-09-27T07:28:18.516Z,1018
2018-09-27T07:29:20.834Z,1017.9
2018-09-27T07:30:23.250Z,1017.9
2018-09-27T07:31:25.290Z,1017.9
2018-09-27T07:32:27.354Z,1018
2018-09-27T07:33:29.649Z,1018
2018-09-27T07:34:32.255Z,1017.9
2018-09-27T07:35:34.297Z,1017.9
2018-09-27T07:36:36.331Z,1017.9
2018-09-27T07:37:38.357Z,1017.9
2018-09-27T07:38:40.473Z,1017.9
2018-09-27T07:39:42.806Z,1017.9
2018-09-27T07:40:45.233Z,1017.9
2018-09-27T07:41:47.544Z,1017.9
2018-09-27T07:42:49.680Z,1017.9
2018-09-27T07:43:52.126Z,1017.9
2018-09-27T07:44:54.550Z,1017.9
2018-09-27T07:45:56.579Z,1017.9
2018-09-27T07:46:58.608Z,1017.9
2018-09-27T07:48:00.648Z,1017.9
2018-09-27T07:49:02.671Z,1017.9
2018-09-27T07:50:04.713Z,1017.9
2018-09-27T07:51:06.745Z,1018
2018-09-27T07:52:09.063Z,1017.9
2018-09-27T07:53:11.782Z,1017.9
2018-09-27T07:54:13.852Z,1017.9
2018-09-27T07:55:16.790Z,1018
2018-09-27T07:56:18.818Z,1018
2018-09-27T07:57:20.869Z,1018
2018-09-27T07:58:23.267Z,1018
2018-09-27T07:59:25.300Z,1018
2018-09-27T08:00:27.624Z,1018
2018-09-27T08:01:29.658Z,1018.1
2018-09-27T08:02:31.983Z,1018.1
2018-09-27T08:03:34.422Z,1018.1
2018-09-27T08:04:36.734Z,1018.1
2018-09-27T08:05:39.458Z,1018.1
2018-09-27T08:06:41.781Z,1018.1
2018-09-27T08:07:43.812Z,1018.1
2018-09-27T08:08:46.131Z,1018.1
2018-09-27T08:09:48.558Z,1018
2018-09-27T08:10:50.646Z,1018
2018-09-27T08:11:52.657Z,1017.9
2018-09-27T08:12:54.655Z,1018
2018-09-27T08:13:57.066Z,1018
2018-09-27T08:14:59.982Z,1017.9
2018-09-27T08:16:02.017Z,1018
2018-09-27T08:17:04.059Z,1018
2018-09-27T08:18:06.085Z,1018
2018-09-27T08:19:08.122Z,1017.9
2018-09-27T08:20:10.155Z,1018
2018-09-27T08:21:12.332Z,1018
2018-09-27T08:22:14.252Z,1018
2018-09-27T08:23:16.276Z,1018
2018-09-27T08:24:18.309Z,1018
2018-09-27T08:25:20.343Z,1018
2018-09-27T08:26:22.410Z,1018
2018-09-27T08:27:24.807Z,1018
2018-09-27T08:28:26.848Z,1018
2018-09-27T08:29:28.872Z,1018
2018-09-27T08:30:30.921Z,1018
2018-09-27T08:31:33.358Z,1018.1
2018-09-27T08:32:35.479Z,1018.1
2018-09-27T08:33:37.434Z,1018
2018-09-27T08:34:39.473Z,1018.1
2018-09-27T08:35:41.505Z,1018
2018-09-27T08:36:43.857Z,1018
2018-09-27T08:37:46.167Z,1018
2018-09-27T08:38:48.553Z,1018
2018-09-27T08:39:50.548Z,1018
2018-09-27T08:40:52.591Z,1018
2018-09-27T08:41:54.622Z,1018
2018-09-27T08:42:56.664Z,1018.1
2018-09-27T08:43:58.700Z,1018.2
2018-09-27T08:45:00.962Z,1018.1
2018-09-27T08:46:04.311Z,1018
2018-09-27T08:47:06.339Z,1018.1
2018-09-27T08:48:08.384Z,1018
2018-09-27T08:49:10.424Z,1018.1
2018-09-27T08:50:12.469Z,1018.1
2018-09-27T08:51:14.505Z,1018.1
2018-09-27T08:52:16.548Z,1018.1
2018-09-27T08:53:18.581Z,1018.1
2018-09-27T08:54:20.613Z,1018.1
2018-09-27T08:55:22.712Z,1018.1
2018-09-27T08:56:25.077Z,1018.1
2018-09-27T08:57:27.420Z,1018.1
2018-09-27T08:58:29.394Z,1018.2
2018-09-27T08:59:31.441Z,1018.1
2018-09-27T09:00:33.473Z,1018.1
2018-09-27T09:01:35.541Z,1018.1
2018-09-27T09:02:37.572Z,1018.1
2018-09-27T09:03:39.818Z,1018.1
2018-09-27T09:04:42.199Z,1018.2
2018-09-27T09:05:44.239Z,1018.1
2018-09-27T09:06:46.274Z,1018.2
2018-09-27T09:07:48.604Z,1018
2018-09-27T09:08:50.651Z,1018.1
2018-09-27T09:09:52.680Z,1018.1
2018-09-27T09:10:55.017Z,1018.1
2018-09-27T09:11:57.487Z,1018.1
2018-09-27T09:12:59.770Z,1018.2
2018-09-27T09:14:01.817Z,1018.2
2018-09-27T09:15:03.856Z,1018.1
2018-09-27T09:16:05.890Z,1018.1
2018-09-27T09:17:08.245Z,1018.1
2018-09-27T09:18:10.288Z,1018.1
2018-09-27T09:19:12.628Z,1018.1
2018-09-27T09:20:14.958Z,1018.1
2018-09-27T09:21:16.991Z,1018.1
2018-09-27T09:22:19.032Z,1018
2018-09-27T09:23:21.061Z,1018
2018-09-27T09:24:23.118Z,1018
2018-09-27T09:25:25.144Z,1018
2018-09-27T09:26:27.466Z,1017.9
2018-09-27T09:27:29.527Z,1018
2018-09-27T09:28:31.937Z,1017.9
2018-09-27T09:29:33.990Z,1018
2018-09-27T09:30:36.462Z,1017.9
2018-09-27T09:31:38.508Z,1017.9
2018-09-27T09:32:40.545Z,1017.9
2018-09-27T09:33:42.656Z,1017.9
2018-09-27T09:34:44.620Z,1017.8
2018-09-27T09:35:46.667Z,1017.9
2018-09-27T09:36:48.711Z,1017.8
2018-09-27T09:37:50.742Z,1017.9
2018-09-27T09:38:52.784Z,1017.8
2018-09-27T09:39:55.394Z,1017.8
2018-09-27T09:40:57.435Z,1017.8
2018-09-27T09:41:59.472Z,1017.8
2018-09-27T09:43:01.518Z,1017.8
2018-09-27T09:44:03.565Z,1017.8
2018-09-27T09:45:05.607Z,1017.7
2018-09-27T09:46:07.641Z,1017.8
2018-09-27T09:47:09.684Z,1017.7
2018-09-27T09:48:12.125Z,1017.7
2018-09-27T09:49:14.163Z,1017.7
2018-09-27T09:50:16.236Z,1017.7
2018-09-27T09:51:18.272Z,1017.6
2018-09-27T09:52:20.318Z,1017.7
2018-09-27T09:53:22.373Z,1017.6
2018-09-27T09:54:24.407Z,1017.5
2018-09-27T09:55:26.447Z,1017.6
2018-09-27T09:56:28.487Z,1017.6
2018-09-27T09:57:30.538Z,1017.6
2018-09-27T09:58:32.962Z,1017.5
2018-09-27T09:59:35.295Z,1017.6
2018-09-27T10:00:37.341Z,1017.6
2018-09-27T10:01:39.545Z,1017.6
2018-09-27T10:02:42.416Z,1017.6
2018-09-27T10:03:44.471Z,1017.6
2018-09-27T10:04:47.185Z,1017.5
2018-09-27T10:05:49.508Z,1017.6
2018-09-27T10:06:51.554Z,1017.6
2018-09-27T10:07:53.589Z,1017.6
2018-09-27T10:08:55.663Z,1017.6
2018-09-27T10:09:58.139Z,1017.5
2018-09-27T10:11:00.171Z,1017.6
2018-09-27T10:12:02.215Z,1017.5
2018-09-27T10:13:04.265Z,1017.5
2018-09-27T10:14:06.591Z,1017.6
2018-09-27T10:15:08.625Z,1017.5
2018-09-27T10:16:10.826Z,1017.5
2018-09-27T10:17:13.026Z,1017.6
2018-09-27T10:18:15.301Z,1017.4
2018-09-27T10:19:17.611Z,1017.5
2018-09-27T10:20:19.751Z,1017.5
2018-09-27T10:21:22.062Z,1017.5
2018-09-27T10:22:24.294Z,1017.4
2018-09-27T10:23:26.374Z,1017.4
2018-09-27T10:24:28.806Z,1017.4
2018-09-27T10:25:31.141Z,1017.3
2018-09-27T10:26:33.167Z,1017.3
2018-09-27T10:27:35.335Z,1017.3
2018-09-27T10:28:37.872Z,1017.3
2018-09-27T10:29:40.106Z,1017.3
2018-09-27T10:30:42.215Z,1017.3
2018-09-27T10:31:44.260Z,1017.3
2018-09-27T10:32:46.307Z,1017.3
2018-09-27T10:33:48.345Z,1017.4
2018-09-27T10:34:50.682Z,1017.3
2018-09-27T10:35:52.716Z,1017.3
2018-09-27T10:36:54.752Z,1017.3
2018-09-27T10:37:57.096Z,1017.3
2018-09-27T10:39:00.972Z,1017.2
2018-09-27T10:40:03.341Z,1017.2
2018-09-27T10:41:05.674Z,1017.3
2018-09-27T10:42:07.716Z,1017.2
2018-09-27T10:43:09.759Z,1017.2
2018-09-27T10:44:11.807Z,1017.3
2018-09-27T10:45:14.155Z,1017.3
2018-09-27T10:46:16.192Z,1017.2
2018-09-27T10:47:18.226Z,1017.3
2018-09-27T10:48:20.272Z,1017.3
2018-09-27T10:49:22.976Z,1017.2
2018-09-27T10:50:25.022Z,1017.2
2018-09-27T10:51:27.567Z,1017.2
2018-09-27T10:52:29.531Z,1017.2
2018-09-27T10:53:31.568Z,1017.1
2018-09-27T10:54:33.888Z,1017.2
2018-09-27T10:55:35.922Z,1017.1
2018-09-27T10:56:37.967Z,1017.1
2018-09-27T10:57:40.011Z,1017.1
2018-09-27T10:58:42.348Z,1017
2018-09-27T10:59:44.465Z,1017
2018-09-27T11:00:46.433Z,1017
2018-09-27T11:01:48.759Z,1017
2018-09-27T11:02:50.810Z,1017
2018-09-27T11:03:53.717Z,1017
2018-09-27T11:04:56.077Z,1017
2018-09-27T11:05:58.120Z,1017
2018-09-27T11:07:00.159Z,1016.9
2018-09-27T11:08:02.215Z,1016.9
2018-09-27T11:09:04.537Z,1016.9
2018-09-27T11:10:06.573Z,1016.8
2018-09-27T11:11:08.694Z,1016.8
2018-09-27T11:12:11.116Z,1016.8
2018-09-27T11:13:13.151Z,1016.7
2018-09-27T11:14:15.482Z,1016.8
2018-09-27T11:15:17.529Z,1016.7
2018-09-27T11:16:19.561Z,1016.7
2018-09-27T11:17:21.616Z,1016.7
2018-09-27T11:18:23.658Z,1016.5
2018-09-27T11:19:25.695Z,1016.6
2018-09-27T11:20:27.737Z,1016.5
2018-09-27T11:21:29.782Z,1016.5
2018-09-27T11:22:32.101Z,1016.5
2018-09-27T11:23:34.149Z,1016.5
2018-09-27T11:24:36.474Z,1016.5
2018-09-27T11:25:38.888Z,1016.4
2018-09-27T11:26:41.316Z,1016.3
2018-09-27T11:27:43.429Z,1016.3
2018-09-27T11:28:46.196Z,1016.3
2018-09-27T11:29:48.245Z,1016.3
2018-09-27T11:30:50.293Z,1016.3
2018-09-27T11:31:52.610Z,1016.3
2018-09-27T11:32:55.065Z,1016.3
2018-09-27T11:33:57.487Z,1016.2
2018-09-27T11:34:59.528Z,1016.2
2018-09-27T11:36:01.952Z,1016.1
2018-09-27T11:37:03.995Z,1016.2
2018-09-27T11:38:06.053Z,1016.1
2018-09-27T11:39:08.377Z,1016.2
2018-09-27T11:40:10.412Z,1016.2
2018-09-27T11:41:12.473Z,1016.1
2018-09-27T11:42:14.559Z,1016.1
2018-09-27T11:43:16.549Z,1016.2
2018-09-27T11:44:18.583Z,1016.1
2018-09-27T11:45:20.631Z,1016
2018-09-27T11:46:22.668Z,1016
2018-09-27T11:47:24.716Z,1016.1
2018-09-27T11:48:26.766Z,1016.1
2018-09-27T11:49:28.919Z,1016.1
2018-09-27T11:50:31.756Z,1016
2018-09-27T11:51:34.190Z,1016
2018-09-27T11:52:36.230Z,1016
2018-09-27T11:53:38.279Z,1015.9
2018-09-27T11:54:40.333Z,1016
2018-09-27T11:55:42.373Z,1015.9
2018-09-27T11:56:44.429Z,1015.8
2018-09-27T11:57:46.476Z,1015.8
2018-09-27T11:58:48.800Z,1015.8
2018-09-27T11:59:51.230Z,1015.8
2018-09-27T12:00:53.670Z,1015.8
2018-09-27T12:01:55.997Z,1015.8
2018-09-27T12:02:58.050Z,1015.7
2018-09-27T12:04:00.101Z,1015.8
2018-09-27T12:05:02.141Z,1015.8
2018-09-27T12:06:04.483Z,1015.7
2018-09-27T12:07:06.528Z,1015.8
2018-09-27T12:08:08.857Z,1015.8
2018-09-27T12:09:10.899Z,1015.7
2018-09-27T12:10:12.948Z,1015.8
2018-09-27T12:11:14.982Z,1015.7
2018-09-27T12:12:17.025Z,1015.7
2018-09-27T12:13:19.528Z,1015.6
2018-09-27T12:14:21.512Z,1015.6
2018-09-27T12:15:23.547Z,1015.7
2018-09-27T12:16:25.597Z,1015.6
2018-09-27T12:17:28.030Z,1015.6
2018-09-27T12:18:30.659Z,1015.6
2018-09-27T12:19:32.997Z,1015.6
2018-09-27T12:20:35.031Z,1015.6
2018-09-27T12:21:37.076Z,1015.6
2018-09-27T12:22:39.108Z,1015.6
2018-09-27T12:23:41.161Z,1015.5
2018-09-27T12:24:43.203Z,1015.6
2018-09-27T12:25:45.657Z,1015.4
2018-09-27T12:26:48.084Z,1015.5
2018-09-27T12:27:50.416Z,1015.3
2018-09-27T12:28:52.840Z,1015.4
2018-09-27T12:29:55.176Z,1015.3
2018-09-27T12:30:57.541Z,1015.4
2018-09-27T12:31:59.526Z,1015.3
2018-09-27T12:33:01.570Z,1015.3
2018-09-27T12:34:03.967Z,1015.3
2018-09-27T12:35:06.859Z,1015.3
2018-09-27T12:36:08.911Z,1015.3
2018-09-27T12:37:10.951Z,1015.2
2018-09-27T12:38:13.334Z,1015.2
2018-09-27T12:39:15.340Z,1015.2
2018-09-27T12:40:18.069Z,1015.2
2018-09-27T12:41:20.111Z,1015.2
2018-09-27T12:42:22.565Z,1015.2
2018-09-27T12:43:24.579Z,1015.2
2018-09-27T12:44:26.619Z,1015.2
2018-09-27T12:45:28.738Z,1015.1
2018-09-27T12:46:30.782Z,1015
2018-09-27T12:47:33.250Z,1015
2018-09-27T12:48:35.410Z,1015
2018-09-27T12:49:37.350Z,1015
2018-09-27T12:50:39.445Z,1015
2018-09-27T12:51:41.914Z,1014.9
2018-09-27T12:52:44.497Z,1014.9
2018-09-27T12:53:46.450Z,1014.9
2018-09-27T12:54:48.871Z,1014.8
2018-09-27T12:55:50.940Z,1014.9
2018-09-27T12:56:52.956Z,1014.9
2018-09-27T12:57:55.001Z,1014.8
2018-09-27T12:58:57.043Z,1014.9
2018-09-27T12:59:59.084Z,1014.8
2018-09-27T13:01:01.425Z,1014.9
2018-09-27T13:02:04.148Z,1014.9
2018-09-27T13:03:05.849Z,1014.8